首页
METAR-TAF:

METAR-TAF

机场 :

阿伯丁, 南达科他州, 美国

纬度: 45-26-36N, 经度: 098-24-47W, 海拔: 396米

当前天气观测

该预报发布于35分钟前的14:53 UTC
风速7节,风向
温度 27°C
湿度 66%
气压 1004 hPa
能見度: 16.1公里
天空无云

METAR: KABR 241453Z AUTO 08007KT 10SM CLR 27/20 A2966 RMK AO2 SLP032 T02720200 53001

时间: 10:28 (15:28 UTC)

预报

该预报发布于1小时和24分钟前的14:04 UTC
预报有效从24日的 14点(UTC)到 25日的 12点(UTC)
风速12节,风向南转南东,有时为19节阵风
能見度: 10公里
散云层高于10000英尺
从 24日的 2000点(UTC)
风速9节,风向西转西北
能見度: 10公里
少量云层高于25000英尺

TAF: KABR 241404Z 2414/2512 16012G19KT P6SM SCT100 FM242000 30009KT P6SM FEW250

超过4000个机场的气象观测和天气预报(METAR&TAF报告)。

可查询的气象台以黄色和红色小点在地图上表示。

将鼠标移到小点上方,可查看气象台名称。

然后点击查看天气观测和预报。

如需切换地图:点击带黑十字的绿色按钮放大地图;点击带横线的绿色按钮缩小地图;或者点击绿色箭头查看邻近地区的地图。


METAR-TAF: